Private Wetterstation Sandau
Wetterdaten: Dienstag, 07.08.2012
Datum Zeit Temp. A. Feuchte A. Luftdruck Regen Wind Richtung Richtung Taupunkt Windchill
07.08.2012 00:01 18,4 C 71 % 1012,9 hPa 0,0 l/m 4,7 km/h (1 Bft) W-SW 247 13,0 C 18,4 C
07.08.2012 00:06 18,3 C 72 % 1013,0 hPa 0,0 l/m 0,0 km/h (0 Bft) W 270 13,2 C 18,3 C
07.08.2012 00:11 18,2 C 72 % 1013,1 hPa 0,0 l/m 3,2 km/h (1 Bft) W-SW 247 13,1 C 18,2 C
07.08.2012 00:16 18,0 C 73 % 1013,1 hPa 0,0 l/m 0,0 km/h (0 Bft) W 270 13,1 C 18,0 C
07.08.2012 00:21 17,9 C 73 % 1013,2 hPa 0,0 l/m 0,0 km/h (0 Bft) W 270 13,0 C 17,9 C
07.08.2012 00:26 17,8 C 73 % 1013,2 hPa 0,0 l/m 0,0 km/h (0 Bft) W 270 12,9 C 17,8 C
07.08.2012 00:31 17,6 C 73 % 1013,2 hPa 0,0 l/m 0,0 km/h (0 Bft) W 270 12,7 C 17,6 C
07.08.2012 00:36 17,5 C 74 % 1013,1 hPa 0,0 l/m 0,0 km/h (0 Bft) W 270 12,8 C 17,5 C
07.08.2012 00:41 17,4 C 74 % 1013,1 hPa 0,0 l/m 0,0 km/h (0 Bft) S-SW 202 12,7 C 17,4 C
07.08.2012 00:46 17,2 C 75 % 1013,2 hPa 0,0 l/m 0,0 km/h (0 Bft) SW 225 12,7 C 17,2 C
07.08.2012 00:51 17,1 C 76 % 1013,0 hPa 0,0 l/m 2,2 km/h (1 Bft) W-SW 247 12,8 C 17,1 C
07.08.2012 00:56 16,9 C 76 % 1013,0 hPa 0,0 l/m 5,0 km/h (1 Bft) W-SW 247 12,6 C 16,9 C
07.08.2012 01:01 16,9 C 77 % 1013,0 hPa 0,0 l/m 5,0 km/h (1 Bft) W-SW 247 12,8 C 16,9 C
07.08.2012 01:06 16,8 C 77 % 1013,0 hPa 0,0 l/m 5,8 km/h (2 Bft) W-SW 247 12,7 C 16,8 C
07.08.2012 01:11 16,8 C 78 % 1013,1 hPa 0,0 l/m 7,6 km/h (2 Bft) W-SW 247 12,9 C 16,8 C
07.08.2012 01:16 16,7 C 78 % 1013,2 hPa 0,0 l/m 5,4 km/h (1 Bft) W-SW 247 12,8 C 16,7 C
07.08.2012 01:21 16,6 C 78 % 1013,3 hPa 0,0 l/m 1,8 km/h (1 Bft) S-SW 202 12,7 C 16,6 C
07.08.2012 01:26 16,6 C 78 % 1013,4 hPa 0,0 l/m 1,4 km/h (1 Bft) S-SW 202 12,7 C 16,6 C
07.08.2012 01:31 16,5 C 78 % 1013,5 hPa 0,0 l/m 1,8 km/h (1 Bft) SW 225 12,6 C 16,5 C
07.08.2012 01:36 16,5 C 79 % 1013,6 hPa 0,0 l/m 3,6 km/h (1 Bft) S-SW 202 12,8 C 16,5 C
07.08.2012 01:41 16,6 C 79 % 1013,5 hPa 0,0 l/m 2,5 km/h (1 Bft) S 180 12,9 C 16,6 C
07.08.2012 01:46 16,6 C 79 % 1013,5 hPa 0,0 l/m 5,4 km/h (1 Bft) SW 225 12,9 C 16,6 C
07.08.2012 01:51 16,6 C 79 % 1013,8 hPa 0,0 l/m 9,7 km/h (2 Bft) W-SW 247 12,9 C 16,6 C
07.08.2012 01:56 16,6 C 79 % 1013,8 hPa 0,0 l/m 2,5 km/h (1 Bft) S-SW 202 12,9 C 16,6 C
07.08.2012 02:01 16,6 C 79 % 1013,8 hPa 0,0 l/m 4,0 km/h (1 Bft) W 270 12,9 C 16,6 C
07.08.2012 02:06 16,5 C 79 % 1013,8 hPa 0,0 l/m 4,7 km/h (1 Bft) W-SW 247 12,8 C 16,5 C
07.08.2012 02:11 16,4 C 79 % 1013,9 hPa 0,0 l/m 4,3 km/h (1 Bft) W-SW 247 12,7 C 16,4 C
07.08.2012 02:16 16,4 C 79 % 1013,9 hPa 0,0 l/m 4,7 km/h (1 Bft) W-SW 247 12,7 C 16,4 C
07.08.2012 02:21 16,3 C 80 % 1013,9 hPa 0,0 l/m 6,1 km/h (2 Bft) W-SW 247 12,8 C 16,3 C
07.08.2012 02:26 16,3 C 79 % 1014,0 hPa 0,0 l/m 5,0 km/h (1 Bft) W-SW 247 12,6 C 16,3 C
07.08.2012 02:31 16,3 C 79 % 1013,9 hPa 0,0 l/m 11,2 km/h (2 Bft) W 270 12,6 C 16,3 C
07.08.2012 02:36 16,2 C 79 % 1014,1 hPa 0,0 l/m 13,3 km/h (3 Bft) W 270 12,6 C 16,2 C
07.08.2012 02:41 16,2 C 78 % 1014,1 hPa 0,0 l/m 16,9 km/h (3 Bft) W-SW 247 12,4 C 16,2 C
07.08.2012 02:46 16,2 C 78 % 1014,2 hPa 0,0 l/m 14,4 km/h (3 Bft) W 270 12,4 C 16,2 C
07.08.2012 02:51 16,2 C 77 % 1014,2 hPa 0,0 l/m 12,2 km/h (2 Bft) W-SW 247 12,2 C 16,2 C
07.08.2012 02:56 16,2 C 77 % 1014,4 hPa 0,0 l/m 16,6 km/h (3 Bft) W-SW 247 12,2 C 16,2 C
07.08.2012 03:01 16,2 C 77 % 1014,5 hPa 0,0 l/m 14,4 km/h (3 Bft) W-SW 247 12,2 C 16,2 C
07.08.2012 03:06 16,2 C 77 % 1014,5 hPa 0,0 l/m 17,6 km/h (3 Bft) W-SW 247 12,2 C 16,2 C
07.08.2012 03:11 16,2 C 77 % 1014,1 hPa 0,0 l/m 7,9 km/h (2 Bft) W-SW 247 12,2 C 16,2 C
07.08.2012 03:16 16,2 C 77 % 1014,3 hPa 0,0 l/m 8,6 km/h (2 Bft) W-SW 247 12,2 C 16,2 C
07.08.2012 03:21 16,3 C 77 % 1014,3 hPa 0,0 l/m 11,2 km/h (2 Bft) W-SW 247 12,3 C 16,3 C
07.08.2012 03:26 16,3 C 77 % 1014,4 hPa 0,0 l/m 6,1 km/h (2 Bft) W-SW 247 12,3 C 16,3 C
07.08.2012 03:31 16,3 C 77 % 1014,3 hPa 0,0 l/m 22,0 km/h (4 Bft) W-SW 247 12,3 C 16,3 C
07.08.2012 03:36 16,3 C 77 % 1014,3 hPa 0,0 l/m 13,3 km/h (3 Bft) W-SW 247 12,3 C 16,3 C
07.08.2012 03:41 16,3 C 76 % 1014,4 hPa 0,0 l/m 4,0 km/h (1 Bft) S-SW 202 12,1 C 16,3 C
07.08.2012 03:46 16,2 C 77 % 1014,5 hPa 0,0 l/m 5,8 km/h (2 Bft) W-SW 247 12,2 C 16,2 C
07.08.2012 03:51 16,1 C 77 % 1014,3 hPa 0,0 l/m 7,6 km/h (2 Bft) S-SW 202 12,1 C 16,1 C
07.08.2012 03:56 15,9 C 78 % 1014,4 hPa 0,0 l/m 8,6 km/h (2 Bft) W 270 12,1 C 15,9 C
07.08.2012 04:01 15,9 C 78 % 1014,4 hPa 0,0 l/m 12,6 km/h (3 Bft) W-SW 247 12,1 C 15,9 C
07.08.2012 04:06 15,8 C 78 % 1014,3 hPa 0,0 l/m 19,1 km/h (3 Bft) W 270 12,0 C 15,8 C
07.08.2012 04:11 15,8 C 79 % 1014,2 hPa 0,0 l/m 7,9 km/h (2 Bft) W-SW 247 12,2 C 15,8 C
07.08.2012 04:16 15,6 C 79 % 1014,3 hPa 0,0 l/m 10,4 km/h (2 Bft) W-SW 247 12,0 C 15,6 C
07.08.2012 04:21 15,6 C 80 % 1014,4 hPa 0,0 l/m 12,6 km/h (3 Bft) W-SW 247 12,2 C 15,6 C
07.08.2012 04:26 15,5 C 80 % 1014,3 hPa 0,0 l/m 22,3 km/h (4 Bft) W 270 12,1 C 15,5 C
07.08.2012 04:31 15,4 C 80 % 1014,4 hPa 0,0 l/m 4,7 km/h (1 Bft) W-SW 247 12,0 C 15,4 C
07.08.2012 04:36 15,3 C 80 % 1014,5 hPa 0,0 l/m 7,9 km/h (2 Bft) W-SW 247 11,9 C 15,3 C
07.08.2012 04:41 15,3 C 81 % 1014,5 hPa 0,0 l/m 8,6 km/h (2 Bft) W-SW 247 12,1 C 15,3 C
07.08.2012 04:46 15,2 C 81 % 1014,5 hPa 0,0 l/m 19,4 km/h (3 Bft) W-SW 247 12,0 C 15,2 C
07.08.2012 04:51 15,2 C 81 % 1014,5 hPa 0,0 l/m 8,3 km/h (2 Bft) W-SW 247 12,0 C 15,2 C
07.08.2012 04:56 15,1 C 82 % 1014,6 hPa 0,0 l/m 2,9 km/h (1 Bft) W-SW 247 12,0 C 15,1 C
07.08.2012 05:01 15,1 C 82 % 1014,6 hPa 0,0 l/m 10,1 km/h (2 Bft) W-SW 247 12,0 C 15,1 C
07.08.2012 05:06 15,1 C 82 % 1014,7 hPa 0,0 l/m 9,0 km/h (2 Bft) W-SW 247 12,0 C 15,1 C
07.08.2012 05:11 15,1 C 82 % 1014,9 hPa 0,0 l/m 7,9 km/h (2 Bft) W 270 12,0 C 15,1 C
07.08.2012 05:16 14,9 C 82 % 1014,5 hPa 0,0 l/m 2,2 km/h (1 Bft) W 270 11,9 C 14,9 C
07.08.2012 05:21 14,9 C 82 % 1014,7 hPa 0,0 l/m 10,4 km/h (2 Bft) W 270 11,9 C 14,9 C
07.08.2012 05:26 14,9 C 82 % 1014,6 hPa 0,0 l/m 5,0 km/h (1 Bft) S 180 11,9 C 14,9 C
07.08.2012 05:31 14,9 C 83 % 1014,7 hPa 0,0 l/m 7,2 km/h (2 Bft) SW 225 12,0 C 14,9 C
07.08.2012 05:36 14,9 C 83 % 1014,7 hPa 0,0 l/m 7,6 km/h (2 Bft) S 180 12,0 C 14,9 C
07.08.2012 05:41 14,9 C 83 % 1014,7 hPa 0,0 l/m 10,4 km/h (2 Bft) W 270 12,0 C 14,9 C
07.08.2012 05:46 14,9 C 83 % 1014,7 hPa 0,0 l/m 3,6 km/h (1 Bft) SW 225 12,0 C 14,9 C
07.08.2012 05:51 14,9 C 83 % 1014,6 hPa 0,0 l/m 6,5 km/h (2 Bft) SW 225 12,0 C 14,9 C
07.08.2012 05:56 14,9 C 83 % 1014,9 hPa 0,0 l/m 4,0 km/h (1 Bft) W-SW 247 12,0 C 14,9 C
07.08.2012 06:01 14,9 C 83 % 1014,9 hPa 0,0 l/m 5,4 km/h (1 Bft) SW 225 12,0 C 14,9 C
07.08.2012 06:06 15,1 C 83 % 1014,9 hPa 0,0 l/m 2,5 km/h (1 Bft) SW 225 12,2 C 15,1 C
07.08.2012 06:11 15,2 C 83 % 1015,0 hPa 0,0 l/m 3,6 km/h (1 Bft) SW 225 12,3 C 15,2 C
07.08.2012 06:16 15,2 C 83 % 1015,0 hPa 0,0 l/m 5,0 km/h (1 Bft) SW 225 12,3 C 15,2 C
07.08.2012 06:21 15,3 C 82 % 1015,1 hPa 0,0 l/m 2,9 km/h (1 Bft) SW 225 12,2 C 15,3 C
07.08.2012 06:26 15,3 C 82 % 1015,3 hPa 0,0 l/m 6,5 km/h (2 Bft) SW 225 12,2 C 15,3 C
07.08.2012 06:31 15,3 C 82 % 1015,4 hPa 0,0 l/m 3,2 km/h (1 Bft) SW 225 12,2 C 15,3 C
07.08.2012 06:36 15,4 C 82 % 1015,5 hPa 0,0 l/m 4,3 km/h (1 Bft) SW 225 12,3 C 15,4 C
07.08.2012 06:41 15,6 C 82 % 1015,6 hPa 0,0 l/m 2,5 km/h (1 Bft) S 180 12,5 C 15,6 C
07.08.2012 06:46 15,6 C 82 % 1015,6 hPa 0,0 l/m 6,1 km/h (2 Bft) SW 225 12,5 C 15,6 C
07.08.2012 06:51 15,5 C 81 % 1015,6 hPa 0,0 l/m 3,6 km/h (1 Bft) S-SO 157 12,3 C 15,5 C
07.08.2012 06:56 15,8 C 82 % 1015,7 hPa 0,0 l/m 4,3 km/h (1 Bft) S 180 12,7 C 15,8 C
07.08.2012 07:01 16,1 C 81 % 1015,7 hPa 0,0 l/m 5,0 km/h (1 Bft) SW 225 12,8 C 16,1 C
07.08.2012 07:06 16,7 C 80 % 1015,6 hPa 0,0 l/m 8,6 km/h (2 Bft) W-SW 247 13,2 C 16,7 C
07.08.2012 07:11 17,0 C 78 % 1015,6 hPa 0,0 l/m 5,0 km/h (1 Bft) S 180 13,1 C 17,0 C
07.08.2012 07:16 17,3 C 78 % 1015,5 hPa 0,0 l/m 8,6 km/h (2 Bft) W-SW 247 13,4 C 17,3 C
07.08.2012 07:21 17,6 C 76 % 1015,7 hPa 0,0 l/m 6,5 km/h (2 Bft) SW 225 13,3 C 17,6 C
07.08.2012 07:26 17,9 C 76 % 1015,8 hPa 0,0 l/m 7,2 km/h (2 Bft) S-SO 157 13,6 C 17,9 C
07.08.2012 07:31 18,1 C 74 % 1015,7 hPa 0,0 l/m 9,4 km/h (2 Bft) W 270 13,4 C 18,1 C
07.08.2012 07:36 18,3 C 74 % 1015,8 hPa 0,0 l/m 4,7 km/h (1 Bft) SW 225 13,6 C 18,3 C
07.08.2012 07:41 18,3 C 73 % 1015,9 hPa 0,0 l/m 13,0 km/h (3 Bft) SW 225 13,4 C 18,3 C
07.08.2012 07:46 18,3 C 73 % 1015,9 hPa 0,0 l/m 7,9 km/h (2 Bft) W-SW 247 13,4 C 18,3 C
07.08.2012 07:51 18,2 C 73 % 1016,0 hPa 0,0 l/m 24,1 km/h (4 Bft) W-SW 247 13,3 C 18,2 C
07.08.2012 07:56 18,2 C 73 % 1016,0 hPa 0,0 l/m 14,4 km/h (3 Bft) W-SW 247 13,3 C 18,2 C
07.08.2012 08:01 18,2 C 73 % 1015,9 hPa 0,0 l/m 6,8 km/h (2 Bft) SW 225 13,3 C 18,2 C
07.08.2012 08:06 18,3 C 73 % 1015,7 hPa 0,0 l/m 21,2 km/h (4 Bft) W-SW 247 13,4 C 18,3 C
07.08.2012 08:11 18,4 C 73 % 1015,8 hPa 0,0 l/m 11,5 km/h (2 Bft) W 270 13,5 C 18,4 C
07.08.2012 08:16 18,5 C 72 % 1015,9 hPa 0,0 l/m 12,2 km/h (2 Bft) W-SW 247 13,4 C 18,5 C
07.08.2012 08:21 18,6 C 72 % 1016,0 hPa 0,0 l/m 19,4 km/h (3 Bft) W-SW 247 13,4 C 18,6 C
07.08.2012 08:26 18,4 C 71 % 1016,0 hPa 0,0 l/m 19,8 km/h (3 Bft) W 270 13,0 C 18,4 C
07.08.2012 08:31 18,2 C 72 % 1016,0 hPa 0,0 l/m 20,9 km/h (4 Bft) W-SW 247 13,1 C 18,2 C
07.08.2012 08:36 18,2 C 73 % 1016,0 hPa 0,0 l/m 17,3 km/h (3 Bft) S-SW 202 13,3 C 18,2 C
07.08.2012 08:41 18,3 C 72 % 1016,0 hPa 0,0 l/m 12,6 km/h (3 Bft) SW 225 13,2 C 18,3 C
07.08.2012 08:46 18,3 C 72 % 1016,1 hPa 0,0 l/m 31,0 km/h (5 Bft) W 270 13,2 C 18,3 C
07.08.2012 08:51 18,2 C 72 % 1016,0 hPa 0,0 l/m 20,2 km/h (4 Bft) W 270 13,1 C 18,2 C
07.08.2012 08:56 18,2 C 72 % 1016,2 hPa 0,0 l/m 25,6 km/h (4 Bft) W-SW 247 13,1 C 18,2 C
07.08.2012 09:01 18,1 C 72 % 1016,1 hPa 0,0 l/m 28,8 km/h (4 Bft) SW 225 13,0 C 18,1 C
07.08.2012 09:06 18,3 C 72 % 1016,1 hPa 0,0 l/m 13,7 km/h (3 Bft) W-SW 247 13,2 C 18,3 C
07.08.2012 09:11 18,6 C 71 % 1016,1 hPa 0,0 l/m 18,7 km/h (3 Bft) W-SW 247 13,2 C 18,6 C
07.08.2012 09:16 18,8 C 70 % 1016,0 hPa 0,0 l/m 11,2 km/h (2 Bft) W-SW 247 13,2 C 18,8 C
07.08.2012 09:21 19,0 C 69 % 1016,0 hPa 0,0 l/m 16,6 km/h (3 Bft) SW 225 13,2 C 19,0 C
07.08.2012 09:26 19,3 C 68 % 1016,0 hPa 0,0 l/m 9,4 km/h (2 Bft) W-NW 292 13,2 C 19,3 C
07.08.2012 09:31 19,2 C 67 % 1016,0 hPa 0,0 l/m 16,6 km/h (3 Bft) SO 135 12,9 C 19,2 C
07.08.2012 09:36 19,1 C 66 % 1016,1 hPa 0,0 l/m 11,2 km/h (2 Bft) W 270 12,6 C 19,1 C
07.08.2012 09:41 19,3 C 66 % 1016,1 hPa 0,0 l/m 22,7 km/h (4 Bft) SW 225 12,8 C 19,3 C
07.08.2012 09:46 19,4 C 65 % 1016,2 hPa 0,0 l/m 9,7 km/h (2 Bft) W-NW 292 12,6 C 19,4 C
07.08.2012 09:51 19,6 C 65 % 1016,3 hPa 0,0 l/m 11,2 km/h (2 Bft) W-SW 247 12,8 C 19,6 C
07.08.2012 09:56 19,9 C 65 % 1016,3 hPa 0,0 l/m 16,2 km/h (3 Bft) W-SW 247 13,1 C 19,9 C
07.08.2012 10:01 20,2 C 64 % 1016,3 hPa 0,0 l/m 15,8 km/h (3 Bft) W-SW 247 13,2 C 20,2 C
07.08.2012 10:06 20,4 C 62 % 1016,4 hPa 0,0 l/m 18,0 km/h (3 Bft) W-NW 292 12,9 C 20,4 C
07.08.2012 10:11 20,5 C 62 % 1016,3 hPa 0,0 l/m 31,3 km/h (5 Bft) W-SW 247 13,0 C 20,5 C
07.08.2012 10:16 20,4 C 61 % 1016,4 hPa 0,0 l/m 6,5 km/h (2 Bft) W-NW 292 12,6 C 20,4 C
07.08.2012 10:21 20,2 C 62 % 1016,4 hPa 0,0 l/m 15,5 km/h (3 Bft) W-NW 292 12,7 C 20,2 C
07.08.2012 10:26 20,1 C 62 % 1016,6 hPa 0,0 l/m 12,2 km/h (2 Bft) W 270 12,6 C 20,1 C
07.08.2012 10:31 20,1 C 62 % 1016,6 hPa 0,0 l/m 12,6 km/h (3 Bft) SW 225 12,6 C 20,1 C
07.08.2012 10:36 19,9 C 62 % 1016,5 hPa 0,0 l/m 10,8 km/h (2 Bft) W 270 12,4 C 19,9 C
07.08.2012 10:41 19,7 C 62 % 1016,7 hPa 0,0 l/m 21,2 km/h (4 Bft) W-SW 247 12,2 C 19,7 C
07.08.2012 10:46 19,8 C 62 % 1016,7 hPa 0,0 l/m 21,6 km/h (4 Bft) W-SW 247 12,3 C 19,8 C
07.08.2012 10:51 19,9 C 61 % 1016,7 hPa 0,0 l/m 9,4 km/h (2 Bft) SW 225 12,2 C 19,9 C
07.08.2012 10:56 19,8 C 61 % 1016,7 hPa 0,0 l/m 13,7 km/h (3 Bft) W 270 12,1 C 19,8 C
07.08.2012 11:01 19,7 C 61 % 1016,8 hPa 0,0 l/m 25,6 km/h (4 Bft) W-SW 247 12,0 C 19,7 C
07.08.2012 11:06 19,8 C 62 % 1017,0 hPa 0,0 l/m 18,0 km/h (3 Bft) W-SW 247 12,3 C 19,8 C
07.08.2012 11:11 19,7 C 62 % 1016,9 hPa 0,0 l/m 7,6 km/h (2 Bft) W 270 12,2 C 19,7 C
07.08.2012 11:16 19,6 C 62 % 1017,0 hPa 0,0 l/m 12,6 km/h (3 Bft) W-SW 247 12,1 C 19,6 C
07.08.2012 11:21 19,6 C 63 % 1017,1 hPa 0,0 l/m 17,3 km/h (3 Bft) W 270 12,4 C 19,6 C
07.08.2012 11:26 19,6 C 61 % 1017,1 hPa 0,0 l/m 19,8 km/h (3 Bft) W 270 11,9 C 19,6 C
07.08.2012 11:31 19,6 C 61 % 1017,2 hPa 0,0 l/m 12,2 km/h (2 Bft) W 270 11,9 C 19,6 C
07.08.2012 11:36 19,6 C 62 % 1017,3 hPa 0,0 l/m 22,0 km/h (4 Bft) W-SW 247 12,1 C 19,6 C
07.08.2012 11:41 19,8 C 62 % 1017,4 hPa 0,0 l/m 26,3 km/h (4 Bft) S 180 12,3 C 19,8 C
07.08.2012 11:46 20,0 C 60 % 1017,4 hPa 0,0 l/m 14,4 km/h (3 Bft) W 270 12,0 C 20,0 C
07.08.2012 11:51 20,2 C 60 % 1017,4 hPa 0,0 l/m 20,5 km/h (4 Bft) W-SW 247 12,2 C 20,2 C
07.08.2012 11:56 20,3 C 59 % 1017,3 hPa 0,0 l/m 17,3 km/h (3 Bft) W-SW 247 12,0 C 20,3 C
07.08.2012 12:01 20,7 C 59 % 1017,2 hPa 0,0 l/m 11,5 km/h (2 Bft) SW 225 12,4 C 20,7 C
07.08.2012 12:06 21,3 C 57 % 1017,3 hPa 0,0 l/m 15,5 km/h (3 Bft) W-SW 247 12,4 C 21,3 C
07.08.2012 12:11 21,6 C 55 % 1017,3 hPa 0,0 l/m 28,8 km/h (4 Bft) W 270 12,2 C 21,6 C
07.08.2012 12:16 21,8 C 55 % 1017,3 hPa 0,0 l/m 14,0 km/h (3 Bft) W 270 12,4 C 21,8 C
07.08.2012 12:21 21,8 C 55 % 1017,2 hPa 0,0 l/m 15,5 km/h (3 Bft) W-NW 292 12,4 C 21,8 C
07.08.2012 12:26 21,4 C 54 % 1017,4 hPa 0,0 l/m 33,5 km/h (5 Bft) W 270 11,7 C 21,4 C
07.08.2012 12:31 21,4 C 56 % 1017,4 hPa 0,0 l/m 26,3 km/h (4 Bft) W 270 12,3 C 21,4 C
07.08.2012 12:36 21,3 C 55 % 1017,4 hPa 0,0 l/m 14,8 km/h (3 Bft) W 270 11,9 C 21,3 C
07.08.2012 12:41 21,1 C 55 % 1017,5 hPa 0,0 l/m 28,1 km/h (4 Bft) W-SW 247 11,7 C 21,1 C
07.08.2012 12:46 20,9 C 56 % 1017,5 hPa 0,0 l/m 24,5 km/h (4 Bft) NW 315 11,8 C 20,9 C
07.08.2012 12:51 20,8 C 55 % 1017,4 hPa 0,0 l/m 17,3 km/h (3 Bft) W-SW 247 11,4 C 20,8 C
07.08.2012 12:56 20,6 C 56 % 1017,5 hPa 0,0 l/m 14,4 km/h (3 Bft) W 270 11,5 C 20,6 C
07.08.2012 13:01 20,5 C 56 % 1017,5 hPa 0,0 l/m 12,6 km/h (3 Bft) NW 315 11,4 C 20,5 C
07.08.2012 13:06 20,7 C 56 % 1017,4 hPa 0,0 l/m 22,0 km/h (4 Bft) W 270 11,6 C 20,7 C
07.08.2012 13:11 20,7 C 56 % 1017,5 hPa 0,0 l/m 7,6 km/h (2 Bft) W-NW 292 11,6 C 20,7 C
07.08.2012 13:16 20,6 C 56 % 1017,5 hPa 0,0 l/m 22,0 km/h (4 Bft) W-SW 247 11,5 C 20,6 C
07.08.2012 13:21 20,4 C 57 % 1017,6 hPa 0,0 l/m 14,4 km/h (3 Bft) W-NW 292 11,6 C 20,4 C
07.08.2012 13:26 20,3 C 57 % 1017,7 hPa 0,0 l/m 22,7 km/h (4 Bft) W-SW 247 11,5 C 20,3 C
07.08.2012 13:31 20,8 C 57 % 1017,7 hPa 0,0 l/m 11,5 km/h (2 Bft) W 270 12,0 C 20,8 C
07.08.2012 13:36 21,2 C 55 % 1017,7 hPa 0,0 l/m 22,7 km/h (4 Bft) W-SW 247 11,8 C 21,2 C
07.08.2012 13:41 21,2 C 55 % 1017,8 hPa 0,0 l/m 7,2 km/h (2 Bft) W-SW 247 11,8 C 21,2 C
07.08.2012 13:46 21,2 C 54 % 1017,8 hPa 0,0 l/m 9,4 km/h (2 Bft) W-SW 247 11,5 C 21,2 C
07.08.2012 13:51 21,1 C 56 % 1017,7 hPa 0,0 l/m 18,7 km/h (3 Bft) W-SW 247 12,0 C 21,1 C
07.08.2012 13:56 21,5 C 56 % 1017,6 hPa 0,0 l/m 22,3 km/h (4 Bft) W-SW 247 12,3 C 21,5 C
07.08.2012 14:01 21,9 C 55 % 1017,5 hPa 0,0 l/m 12,2 km/h (2 Bft) W-SW 247 12,4 C 21,9 C
07.08.2012 14:06 22,2 C 54 % 1017,6 hPa 0,0 l/m 18,4 km/h (3 Bft) SW 225 12,4 C 22,2 C
07.08.2012 14:11 22,6 C 54 % 1017,7 hPa 0,0 l/m 14,0 km/h (3 Bft) W 270 12,8 C 22,6 C
07.08.2012 14:16 22,8 C 52 % 1017,8 hPa 0,0 l/m 14,4 km/h (3 Bft) W 270 12,4 C 22,8 C
07.08.2012 14:21 22,5 C 52 % 1017,8 hPa 0,0 l/m 8,3 km/h (2 Bft) W-NW 292 12,1 C 22,5 C
07.08.2012 14:26 22,4 C 53 % 1017,7 hPa 0,0 l/m 11,9 km/h (2 Bft) S-SW 202 12,3 C 22,4 C
07.08.2012 14:31 22,4 C 53 % 1017,7 hPa 0,0 l/m 24,1 km/h (4 Bft) SW 225 12,3 C 22,4 C
07.08.2012 14:36 22,4 C 52 % 1017,7 hPa 0,0 l/m 41,0 km/h (6 Bft) W 270 12,1 C 22,4 C
07.08.2012 14:41 22,1 C 53 % 1017,6 hPa 0,0 l/m 9,7 km/h (2 Bft) W-SW 247 12,1 C 22,1 C
07.08.2012 14:46 21,9 C 53 % 1017,7 hPa 0,0 l/m 18,7 km/h (3 Bft) W-SW 247 11,9 C 21,9 C
07.08.2012 14:51 21,8 C 55 % 1017,7 hPa 0,0 l/m 17,3 km/h (3 Bft) W-SW 247 12,4 C 21,8 C
07.08.2012 14:56 21,6 C 54 % 1017,8 hPa 0,0 l/m 11,9 km/h (2 Bft) SW 225 11,9 C 21,6 C
07.08.2012 15:01 21,3 C 55 % 1017,8 hPa 0,0 l/m 7,6 km/h (2 Bft) W-SW 247 11,9 C 21,3 C
07.08.2012 15:06 21,0 C 57 % 1017,9 hPa 0,0 l/m 13,7 km/h (3 Bft) NW 315 12,1 C 21,0 C
07.08.2012 15:11 20,6 C 59 % 1017,9 hPa 0,0 l/m 11,2 km/h (2 Bft) W-NW 292 12,3 C 20,6 C
07.08.2012 15:16 20,4 C 61 % 1018,0 hPa 0,0 l/m 20,2 km/h (4 Bft) W-SW 247 12,6 C 20,4 C
07.08.2012 15:21 20,4 C 62 % 1018,2 hPa 0,0 l/m 23,4 km/h (4 Bft) W-SW 247 12,9 C 20,4 C
07.08.2012 15:26 20,7 C 61 % 1018,0 hPa 0,0 l/m 11,9 km/h (2 Bft) W-SW 247 12,9 C 20,7 C
07.08.2012 15:31 20,9 C 59 % 1018,1 hPa 0,0 l/m 21,2 km/h (4 Bft) W-SW 247 12,6 C 20,9 C
07.08.2012 15:36 21,1 C 59 % 1018,3 hPa 0,0 l/m 11,2 km/h (2 Bft) SW 225 12,8 C 21,1 C
07.08.2012 15:41 21,1 C 58 % 1018,2 hPa 0,0 l/m 5,0 km/h (1 Bft) S-SW 202 12,5 C 21,1 C
07.08.2012 15:46 20,9 C 58 % 1018,3 hPa 0,0 l/m 7,2 km/h (2 Bft) S-SW 202 12,3 C 20,9 C
07.08.2012 15:51 20,3 C 62 % 1018,6 hPa 0,0 l/m 19,4 km/h (3 Bft) W 270 12,8 C 20,3 C
07.08.2012 15:56 19,5 C 64 % 1018,5 hPa 0,0 l/m 15,5 km/h (3 Bft) W-NW 292 12,5 C 19,5 C
07.08.2012 16:01 18,8 C 67 % 1018,3 hPa 0,0 l/m 16,9 km/h (3 Bft) W-SW 247 12,5 C 18,8 C
07.08.2012 16:06 18,4 C 69 % 1018,5 hPa 0,0 l/m 5,0 km/h (1 Bft) W-NW 292 12,6 C 18,4 C
07.08.2012 16:11 18,4 C 69 % 1018,4 hPa 0,0 l/m 20,9 km/h (4 Bft) W-SW 247 12,6 C 18,4 C
07.08.2012 16:16 18,6 C 70 % 1018,3 hPa 0,0 l/m 11,2 km/h (2 Bft) SW 225 13,0 C 18,6 C
07.08.2012 16:21 18,9 C 69 % 1018,3 hPa 0,0 l/m 4,7 km/h (1 Bft) N-NW 337 13,1 C 18,9 C
07.08.2012 16:26 19,1 C 68 % 1018,4 hPa 0,0 l/m 3,6 km/h (1 Bft) W-NW 292 13,1 C 19,1 C
07.08.2012 16:31 19,2 C 68 % 1018,3 hPa 0,0 l/m 4,7 km/h (1 Bft) W-NW 292 13,1 C 19,2 C
07.08.2012 16:36 19,2 C 68 % 1018,4 hPa 0,0 l/m 10,1 km/h (2 Bft) W-SW 247 13,1 C 19,2 C
07.08.2012 16:41 19,2 C 69 % 1018,4 hPa 0,0 l/m 11,2 km/h (2 Bft) W 270 13,4 C 19,2 C
07.08.2012 16:46 19,1 C 68 % 1018,4 hPa 0,0 l/m 17,6 km/h (3 Bft) W-SW 247 13,1 C 19,1 C
07.08.2012 16:51 19,1 C 69 % 1018,5 hPa 0,0 l/m 18,0 km/h (3 Bft) SW 225 13,3 C 19,1 C
07.08.2012 16:56 19,1 C 69 % 1018,5 hPa 0,0 l/m 18,7 km/h (3 Bft) NW 315 13,3 C 19,1 C
07.08.2012 17:01 19,1 C 70 % 1018,5 hPa 0,0 l/m 5,0 km/h (1 Bft) W-NW 292 13,5 C 19,1 C
07.08.2012 17:06 19,1 C 69 % 1018,6 hPa 0,0 l/m 6,1 km/h (2 Bft) NW 315 13,3 C 19,1 C
07.08.2012 17:11 19,2 C 69 % 1018,5 hPa 0,0 l/m 9,0 km/h (2 Bft) W 270 13,4 C 19,2 C
07.08.2012 17:16 19,2 C 68 % 1018,6 hPa 0,0 l/m 5,8 km/h (2 Bft) W-NW 292 13,1 C 19,2 C
07.08.2012 17:21 19,2 C 68 % 1018,5 hPa 0,0 l/m 9,7 km/h (2 Bft) W-SW 247 13,1 C 19,2 C
07.08.2012 17:26 19,2 C 69 % 1018,6 hPa 0,0 l/m 5,0 km/h (1 Bft) SW 225 13,4 C 19,2 C
07.08.2012 17:31 19,3 C 70 % 1018,4 hPa 0,0 l/m 13,3 km/h (3 Bft) W-SW 247 13,7 C 19,3 C
07.08.2012 17:36 19,3 C 70 % 1018,5 hPa 0,0 l/m 22,3 km/h (4 Bft) W 270 13,7 C 19,3 C
07.08.2012 17:41 19,4 C 70 % 1018,4 hPa 0,0 l/m 4,7 km/h (1 Bft) W-SW 247 13,8 C 19,4 C
07.08.2012 17:46 19,4 C 70 % 1018,5 hPa 0,0 l/m 7,9 km/h (2 Bft) W-SW 247 13,8 C 19,4 C
07.08.2012 17:51 19,4 C 69 % 1018,5 hPa 0,0 l/m 6,5 km/h (2 Bft) W-SW 247 13,6 C 19,4 C
07.08.2012 17:56 19,3 C 70 % 1018,6 hPa 0,0 l/m 9,7 km/h (2 Bft) W-SW 247 13,7 C 19,3 C
07.08.2012 18:01 19,2 C 70 % 1018,6 hPa 0,0 l/m 11,9 km/h (2 Bft) W-NW 292 13,6 C 19,2 C
07.08.2012 18:06 19,2 C 70 % 1018,6 hPa 0,0 l/m 6,1 km/h (2 Bft) W-NW 292 13,6 C 19,2 C
07.08.2012 18:11 19,1 C 71 % 1018,6 hPa 0,0 l/m 10,8 km/h (2 Bft) W-SW 247 13,7 C 19,1 C
07.08.2012 18:16 19,1 C 70 % 1018,6 hPa 0,0 l/m 5,8 km/h (2 Bft) W 270 13,5 C 19,1 C
07.08.2012 18:21 19,1 C 71 % 1018,6 hPa 0,0 l/m 6,8 km/h (2 Bft) W-SW 247 13,7 C 19,1 C
07.08.2012 18:26 19,2 C 71 % 1018,7 hPa 0,0 l/m 5,8 km/h (2 Bft) W-SW 247 13,8 C 19,2 C
07.08.2012 18:31 19,4 C 70 % 1018,7 hPa 0,0 l/m 7,9 km/h (2 Bft) W-SW 247 13,8 C 19,4 C
07.08.2012 18:36 19,4 C 69 % 1018,7 hPa 0,0 l/m 5,8 km/h (2 Bft) W-SW 247 13,6 C 19,4 C
07.08.2012 18:41 19,4 C 68 % 1018,8 hPa 0,0 l/m 8,6 km/h (2 Bft) W 270 13,3 C 19,4 C
07.08.2012 18:46 19,3 C 68 % 1018,8 hPa 0,0 l/m 5,8 km/h (2 Bft) N-NW 337 13,2 C 19,3 C
07.08.2012 18:51 18,9 C 68 % 1019,0 hPa 0,0 l/m 26,3 km/h (4 Bft) W-NW 292 12,9 C 18,9 C
07.08.2012 18:56 18,5 C 67 % 1019,0 hPa 0,0 l/m 5,0 km/h (1 Bft) W-NW 292 12,3 C 18,5 C
07.08.2012 19:01 18,2 C 67 % 1018,9 hPa 0,0 l/m 6,5 km/h (2 Bft) N-NO 22 12,0 C 18,2 C
07.08.2012 19:06 17,8 C 68 % 1018,9 hPa 0,0 l/m 9,0 km/h (2 Bft) NW 315 11,8 C 17,8 C
07.08.2012 19:11 17,8 C 69 % 1018,9 hPa 0,0 l/m 6,5 km/h (2 Bft) NW 315 12,0 C 17,8 C
07.08.2012 19:16 17,8 C 69 % 1019,0 hPa 0,0 l/m 0,0 km/h (0 Bft) W 270 12,0 C 17,8 C
07.08.2012 19:21 17,8 C 70 % 1019,0 hPa 0,0 l/m 2,2 km/h (1 Bft) W-SW 247 12,3 C 17,8 C
07.08.2012 19:26 17,8 C 71 % 1019,1 hPa 0,0 l/m 6,1 km/h (2 Bft) W 270 12,5 C 17,8 C
07.08.2012 19:31 17,7 C 71 % 1019,1 hPa 0,0 l/m 2,5 km/h (1 Bft) W-NW 292 12,4 C 17,7 C
07.08.2012 19:36 17,8 C 72 % 1019,2 hPa 0,0 l/m 2,2 km/h (1 Bft) W-SW 247 12,7 C 17,8 C
07.08.2012 19:41 17,8 C 73 % 1019,1 hPa 0,0 l/m 0,0 km/h (0 Bft) W-SW 247 12,9 C 17,8 C
07.08.2012 19:46 17,9 C 73 % 1019,2 hPa 0,0 l/m 2,5 km/h (1 Bft) W 270 13,0 C 17,9 C
07.08.2012 19:51 17,9 C 73 % 1019,1 hPa 0,0 l/m 3,2 km/h (1 Bft) W 270 13,0 C 17,9 C
07.08.2012 19:56 17,9 C 73 % 1019,1 hPa 0,0 l/m 1,1 km/h (1 Bft) W 270 13,0 C 17,9 C
07.08.2012 20:01 17,9 C 73 % 1019,0 hPa 0,0 l/m 1,4 km/h (1 Bft) W 270 13,0 C 17,9 C
07.08.2012 20:06 17,8 C 73 % 1019,0 hPa 0,0 l/m 1,4 km/h (1 Bft) W 270 12,9 C 17,8 C
07.08.2012 20:11 17,8 C 73 % 1019,0 hPa 0,0 l/m 2,9 km/h (1 Bft) W 270 12,9 C 17,8 C
07.08.2012 20:16 17,8 C 73 % 1019,2 hPa 0,0 l/m 4,7 km/h (1 Bft) SW 225 12,9 C 17,8 C
07.08.2012 20:21 17,8 C 72 % 1019,3 hPa 0,0 l/m 5,0 km/h (1 Bft) W-SW 247 12,7 C 17,8 C
07.08.2012 20:26 17,8 C 72 % 1019,3 hPa 0,0 l/m 11,9 km/h (2 Bft) W-NW 292 12,7 C 17,8 C
07.08.2012 20:31 17,8 C 72 % 1019,3 hPa 0,0 l/m 6,1 km/h (2 Bft) W-SW 247 12,7 C 17,8 C
07.08.2012 20:36 17,6 C 72 % 1019,3 hPa 0,0 l/m 9,4 km/h (2 Bft) W 270 12,5 C 17,6 C
07.08.2012 20:41 17,6 C 72 % 1019,4 hPa 0,0 l/m 14,8 km/h (3 Bft) W 270 12,5 C 17,6 C
07.08.2012 20:46 17,6 C 70 % 1019,5 hPa 0,0 l/m 15,5 km/h (3 Bft) W-SW 247 12,1 C 17,6 C
07.08.2012 20:51 17,5 C 70 % 1019,5 hPa 0,0 l/m 15,1 km/h (3 Bft) W-NW 292 12,0 C 17,5 C
07.08.2012 20:56 17,4 C 71 % 1019,4 hPa 0,0 l/m 14,8 km/h (3 Bft) W-NW 292 12,1 C 17,4 C
07.08.2012 21:01 17,3 C 71 % 1019,4 hPa 0,0 l/m 6,5 km/h (2 Bft) W-NW 292 12,0 C 17,3 C
07.08.2012 21:06 17,2 C 72 % 1019,6 hPa 0,0 l/m 11,9 km/h (2 Bft) W-NW 292 12,1 C 17,2 C
07.08.2012 21:11 17,1 C 72 % 1019,6 hPa 0,0 l/m 15,8 km/h (3 Bft) W-SW 247 12,0 C 17,1 C
07.08.2012 21:16 17,0 C 72 % 1019,7 hPa 0,0 l/m 12,2 km/h (2 Bft) W-SW 247 11,9 C 17,0 C
07.08.2012 21:21 16,9 C 72 % 1019,7 hPa 0,0 l/m 16,2 km/h (3 Bft) W-SW 247 11,8 C 16,9 C
07.08.2012 21:26 16,9 C 73 % 1019,8 hPa 0,0 l/m 12,6 km/h (3 Bft) W 270 12,0 C 16,9 C
07.08.2012 21:31 16,9 C 73 % 1019,8 hPa 0,0 l/m 20,9 km/h (4 Bft) W-SW 247 12,0 C 16,9 C
07.08.2012 21:36 16,8 C 74 % 1020,0 hPa 0,0 l/m 9,4 km/h (2 Bft) W 270 12,1 C 16,8 C
07.08.2012 21:41 16,8 C 74 % 1020,0 hPa 0,0 l/m 6,5 km/h (2 Bft) W 270 12,1 C 16,8 C
07.08.2012 21:46 16,6 C 74 % 1020,0 hPa 0,0 l/m 10,4 km/h (2 Bft) W-SW 247 11,9 C 16,6 C
07.08.2012 21:51 16,5 C 75 % 1020,0 hPa 0,0 l/m 9,4 km/h (2 Bft) W-SW 247 12,1 C 16,5 C
07.08.2012 21:56 16,4 C 75 % 1020,0 hPa 0,0 l/m 14,4 km/h (3 Bft) W-SW 247 12,0 C 16,4 C
07.08.2012 22:01 16,3 C 76 % 1020,0 hPa 0,0 l/m 6,1 km/h (2 Bft) W-SW 247 12,1 C 16,3 C
07.08.2012 22:06 16,2 C 76 % 1020,0 hPa 0,0 l/m 4,3 km/h (1 Bft) W-SW 247 12,0 C 16,2 C
07.08.2012 22:11 16,2 C 76 % 1020,1 hPa 0,0 l/m 17,3 km/h (3 Bft) W-SW 247 12,0 C 16,2 C
07.08.2012 22:16 16,1 C 77 % 1020,0 hPa 0,0 l/m 7,9 km/h (2 Bft) W-SW 247 12,1 C 16,1 C
07.08.2012 22:21 16,1 C 77 % 1020,0 hPa 0,0 l/m 5,8 km/h (2 Bft) W-SW 247 12,1 C 16,1 C
07.08.2012 22:26 16,1 C 78 % 1019,9 hPa 0,0 l/m 15,1 km/h (3 Bft) W 270 12,3 C 16,1 C
07.08.2012 22:31 16,0 C 78 % 1020,0 hPa 0,0 l/m 4,7 km/h (1 Bft) W-SW 247 12,2 C 16,0 C
07.08.2012 22:36 16,0 C 78 % 1019,9 hPa 0,0 l/m 7,9 km/h (2 Bft) S-SW 202 12,2 C 16,0 C
07.08.2012 22:41 16,1 C 78 % 1020,0 hPa 0,0 l/m 7,6 km/h (2 Bft) W-SW 247 12,3 C 16,1 C
07.08.2012 22:46 16,1 C 78 % 1020,0 hPa 0,0 l/m 10,8 km/h (2 Bft) W 270 12,3 C 16,1 C
07.08.2012 22:51 16,1 C 78 % 1020,1 hPa 0,0 l/m 7,6 km/h (2 Bft) W-SW 247 12,3 C 16,1 C
07.08.2012 22:56 16,1 C 78 % 1020,1 hPa 0,0 l/m 8,3 km/h (2 Bft) W-SW 247 12,3 C 16,1 C
07.08.2012 23:01 16,1 C 78 % 1020,1 hPa 0,0 l/m 7,6 km/h (2 Bft) W-SW 247 12,3 C 16,1 C
07.08.2012 23:06 16,1 C 78 % 1020,0 hPa 0,0 l/m 9,4 km/h (2 Bft) W-SW 247 12,3 C 16,1 C
07.08.2012 23:11 16,1 C 79 % 1020,0 hPa 0,0 l/m 3,6 km/h (1 Bft) NW 315 12,5 C 16,1 C
07.08.2012 23:16 16,1 C 79 % 1020,0 hPa 0,0 l/m 7,2 km/h (2 Bft) N-NW 337 12,5 C 16,1 C
07.08.2012 23:21 16,1 C 79 % 1020,0 hPa 0,0 l/m 5,4 km/h (1 Bft) W-NW 292 12,5 C 16,1 C
07.08.2012 23:26 16,0 C 79 % 1020,0 hPa 0,0 l/m 13,7 km/h (3 Bft) W-SW 247 12,4 C 16,0 C
07.08.2012 23:31 15,9 C 79 % 1020,2 hPa 0,0 l/m 11,2 km/h (2 Bft) W-SW 247 12,3 C 15,9 C
07.08.2012 23:36 15,9 C 79 % 1020,1 hPa 0,0 l/m 4,7 km/h (1 Bft) W 270 12,3 C 15,9 C
07.08.2012 23:41 15,8 C 79 % 1019,9 hPa 0,0 l/m 7,2 km/h (2 Bft) W-SW 247 12,2 C 15,8 C
07.08.2012 23:46 15,8 C 80 % 1019,9 hPa 0,0 l/m 11,2 km/h (2 Bft) W-SW 247 12,4 C 15,8 C
07.08.2012 23:51 15,6 C 80 % 1020,0 hPa 0,0 l/m 11,5 km/h (2 Bft) W-SW 247 12,2 C 15,6 C
07.08.2012 23:56 15,6 C 80 % 1020,0 hPa 0,0 l/m 9,7 km/h (2 Bft) W-SW 247 12,2 C 15,6 C
_ Min-Zeit 05:16 14:16 00:01 - 00:06 - - 13:01 05:16
Minimum _ 14,9 C 52 % 1012,9 hPa - 0,0 km/h (0 Bft) - - 11,4 C 14,9 C
_ Max-Zeit 14:16 05:31 23:31 00:01 14:36 - - 18:26 14:16
Maximum _ 22,8 C 83 % 1020,2 hPa 0,0 l/m 41,0 km/h
W (6 Bft)
- - 13,8 C 22,8 C
Durchschnitt _ 18,1 C 71 % 1016,9 hPa #0,0 l/m 11,0 km/h (2 Bft) W-SW - 12,5 C 18,1 C
(c) by David Heller